Time;durP1;ratioP1;P1;durP2;ratioP2;P2;SDS_P1;SDS_P2;PMS_P1;PMS_P2;Temp;Humidity;BMP_temperature;BMP_pressure;BME280_temperature;BME280_humidity;BME280_pressure;Samples;Min_cycle;Max_cycle;Signal;HPM_P1;HPM_P2
2021/09/24 00:13:46;;;;;;;0.20;0.20;;;22.40;49.60;;;;;;31253161;28;20054;-40
2021/09/24 00:28:48;;;;;;;0.20;0.20;;;22.40;49.60;;;;;;31164833;28;20053;-43
2021/09/24 00:43:51;;;;;;;0.17;0.17;;;22.40;49.70;;;;;;31127557;28;20050;-54
2021/09/24 00:58:53;;;;;;;0.10;0.10;;;22.40;50.60;;;;;;31142229;28;20050;-51
2021/09/24 01:13:55;;;;;;;0.10;0.10;;;22.40;49.90;;;;;;31264126;28;20054;-54
2021/09/24 01:28:58;;;;;;;0.10;0.10;;;22.40;49.90;;;;;;31145667;28;20058;-53
2021/09/24 01:44:00;;;;;;;0.10;0.10;;;22.40;50.40;;;;;;31143616;28;20056;-55
2021/09/24 01:59:02;;;;;;;0.10;0.10;;;22.40;50.10;;;;;;31241682;28;20060;-51
2021/09/24 02:14:05;;;;;;;0.10;0.10;;;22.40;50.20;;;;;;31261016;28;20053;-51
2021/09/24 02:29:07;;;;;;;0.10;0.10;;;22.40;50.60;;;;;;31260769;28;20068;-53
2021/09/24 02:44:11;;;;;;;0.10;0.10;;;22.40;50.50;;;;;;31259070;28;20375;-54
2021/09/24 02:59:13;;;;;;;0.10;0.10;;;22.40;50.80;;;;;;31259790;28;20050;-47
2021/09/24 03:14:15;;;;;;;0.10;0.10;;;22.40;50.50;;;;;;31255160;28;20060;-43
2021/09/24 03:29:17;;;;;;;0.10;0.10;;;22.40;50.50;;;;;;31255555;28;20046;-41
2021/09/24 03:44:19;;;;;;;0.10;0.10;;;22.40;50.50;;;;;;31243927;28;20042;-53
2021/09/24 03:59:22;;;;;;;0.10;0.10;;;22.30;51.00;;;;;;31156653;28;20109;-53
2021/09/24 04:14:24;;;;;;;0.10;0.10;;;22.30;51.10;;;;;;31233511;28;20050;-41
2021/09/24 04:29:26;;;;;;;0.17;0.10;;;22.30;51.10;;;;;;31252572;28;20053;-41
2021/09/24 04:44:28;;;;;;;4.00;0.40;;;22.30;51.30;;;;;;31265884;28;20050;-45
2021/09/24 04:59:30;;;;;;;10.27;3.63;;;22.20;51.90;;;;;;31271293;28;20862;-44
2021/09/24 05:14:32;;;;;;;13.90;4.25;;;22.20;51.00;;;;;;31269903;28;20105;-43
2021/09/24 05:29:34;;;;;;;12.32;6.10;;;22.00;50.30;;;;;;31265588;28;20038;-47
2021/09/24 05:44:36;;;;;;;24.73;17.42;;;21.90;49.80;;;;;;31258491;28;20065;-46
2021/09/24 05:59:38;;;;;;;25.63;18.40;;;21.90;49.10;;;;;;31251603;28;20046;-44
2021/09/24 06:14:40;;;;;;;19.10;13.52;;;21.90;47.60;;;;;;31268192;28;20050;-47
2021/09/24 06:29:47;;;;;;;12.38;10.57;;;22.00;48.60;;;;;;31267064;28;20048;-51
2021/09/24 06:44:50;;;;;;;13.20;9.55;;;21.90;48.40;;;;;;31264149;28;20057;-40
2021/09/24 06:59:52;;;;;;;7.93;6.65;;;22.00;48.80;;;;;;31193751;28;20093;-40
2021/09/24 07:14:54;;;;;;;7.20;5.68;;;22.00;49.30;;;;;;31139666;28;20066;-41
2021/09/24 07:29:56;;;;;;;14.80;8.68;;;22.00;49.80;;;;;;31138881;28;20092;-42
2021/09/24 07:44:58;;;;;;;7.38;6.25;;;22.00;50.10;;;;;;31137563;28;20057;-40
2021/09/24 08:00:03;;;;;;;23.13;17.15;;;22.00;50.50;;;;;;31128609;28;20066;-47
2021/09/24 08:15:09;;;;;;;18.40;12.80;;;21.90;49.50;;;;;;31208004;28;20065;-47
2021/09/24 08:30:14;;;;;;;12.57;8.52;;;21.90;48.50;;;;;;31247562;28;20053;-50
2021/09/24 08:45:26;;;;;;;13.25;8.05;;;21.90;48.10;;;;;;31245901;28;20061;-49
2021/09/24 09:00:30;;;;;;;5.57;4.43;;;21.90;47.70;;;;;;31248239;28;20092;-50
2021/09/24 09:15:32;;;;;;;10.10;7.57;;;21.90;47.40;;;;;;31253856;28;20066;-51
2021/09/24 09:30:37;;;;;;;8.93;7.97;;;21.80;47.30;;;;;;31265328;28;20050;-47
2021/09/24 09:45:39;;;;;;;9.63;5.65;;;21.80;47.50;;;;;;31267598;28;20110;-50
2021/09/24 10:00:53;;;;;;;9.75;6.00;;;21.80;46.20;;;;;;31263609;28;20088;-51
2021/09/24 10:15:55;;;;;;;16.80;11.45;;;21.80;46.50;;;;;;31267081;28;20050;-42
2021/09/24 10:31:00;;;;;;;60.25;43.75;;;21.80;46.40;;;;;;31266802;28;20038;-49
2021/09/24 10:46:02;;;;;;;19.70;15.75;;;21.80;45.00;;;;;;31264652;28;20109;-49
2021/09/24 11:01:15;;;;;;;23.15;14.88;;;21.70;47.10;;;;;;31211590;28;20038;-48
2021/09/24 11:16:24;;;;;;;23.50;15.27;;;21.70;46.20;;;;;;31140871;28;20050;-46
2021/09/24 11:31:55;;;;;;;27.87;13.57;;;21.80;47.80;;;;;;31139274;28;20101;-43
2021/09/24 11:46:57;;;;;;;;;;;21.90;48.20;;;;;;31224934;28;20138;-39
2021/09/24 12:01:59;;;;;;;14.52;11.35;;;22.10;47.70;;;;;;31239329;28;19921;-48
2021/09/24 12:17:07;;;;;;;16.83;11.35;;;22.20;47.90;;;;;;31254092;28;20053;-44
2021/09/24 12:32:14;;;;;;;19.77;11.77;;;22.30;48.20;;;;;;31247196;28;20045;-40
2021/09/24 12:47:22;;;;;;;17.92;11.65;;;22.00;49.80;;;;;;31254337;28;20061;-41
2021/09/24 13:02:26;;;;;;;17.73;10.88;;;21.90;50.40;;;;;;30857792;28;10000641;-46
2021/09/24 13:17:32;;;;;;;13.40;10.13;;;21.90;50.30;;;;;;31266184;28;20042;-50
2021/09/24 13:32:34;;;;;;;17.80;11.05;;;21.90;49.90;;;;;;31264588;28;20045;-50
2021/09/24 13:47:37;;;;;;;21.45;9.88;;;22.00;50.10;;;;;;31261712;28;20084;-53
2021/09/24 14:02:44;;;;;;;18.20;9.43;;;22.00;50.20;;;;;;31254102;28;20038;-48
2021/09/24 14:17:47;;;;;;;18.83;8.50;;;22.00;50.30;;;;;;31262679;28;20046;-50
2021/09/24 14:32:49;;;;;;;15.25;8.93;;;21.90;50.50;;;;;;31254271;28;20118;-42
2021/09/24 14:47:52;;;;;;;20.08;9.55;;;21.90;50.90;;;;;;31244748;28;20053;-43
2021/09/24 15:02:54;;;;;;;22.63;9.02;;;21.90;51.70;;;;;;31244932;28;20388;-42
2021/09/24 15:17:56;;;;;;;22.08;9.13;;;21.90;52.00;;;;;;31242634;28;20388;-43
2021/09/24 15:32:58;;;;;;;23.27;10.15;;;21.90;51.90;;;;;;31246983;28;20057;-47
2021/09/24 15:48:01;;;;;;;19.67;8.57;;;21.90;51.70;;;;;;31237823;28;20080;-48
2021/09/24 16:03:03;;;;;;;21.33;10.05;;;22.00;51.40;;;;;;31238560;28;20333;-46
2021/09/24 16:18:05;;;;;;;25.02;8.90;;;22.00;51.80;;;;;;31249612;28;20046;-42
2021/09/24 16:33:08;;;;;;;12.63;7.60;;;21.90;52.40;;;;;;31253607;28;20046;-43
2021/09/24 16:48:10;;;;;;;15.40;8.18;;;21.90;52.10;;;;;;31276281;28;20042;-44
2021/09/24 17:03:12;;;;;;;13.68;6.78;;;22.00;51.90;;;;;;31275011;28;20065;-45
2021/09/24 17:18:14;;;;;;;12.05;6.32;;;22.00;52.00;;;;;;31180875;28;20050;-42
2021/09/24 17:33:16;;;;;;;10.07;6.45;;;22.00;52.00;;;;;;31150241;28;20069;-48
2021/09/24 17:48:19;;;;;;;12.93;6.70;;;22.00;52.00;;;;;;31139623;28;20046;-53
2021/09/24 18:03:22;;;;;;;11.00;6.88;;;22.00;52.10;;;;;;31133818;28;20054;-53
2021/09/24 18:18:24;;;;;;;16.58;6.90;;;22.00;52.10;;;;;;31136559;28;20057;-48
2021/09/24 18:33:28;;;;;;;12.88;6.90;;;21.90;52.50;;;;;;31217348;28;20050;-52
2021/09/24 18:48:30;;;;;;;15.65;7.28;;;21.90;52.70;;;;;;31250602;28;20061;-46
2021/09/24 19:03:32;;;;;;;18.73;7.15;;;22.10;53.30;;;;;;31259483;28;20061;-46
2021/09/24 19:18:35;;;;;;;10.55;6.38;;;22.00;52.80;;;;;;31255438;28;20113;-49
2021/09/24 19:33:37;;;;;;;16.33;6.25;;;22.10;53.70;;;;;;31258354;28;20127;-52
2021/09/24 19:48:39;;;;;;;13.10;5.70;;;22.20;53.00;;;;;;31253522;28;20078;-48
2021/09/24 20:03:41;;;;;;;10.30;5.47;;;22.30;52.70;;;;;;31249264;28;20042;-43
2021/09/24 20:18:45;;;;;;;9.57;4.82;;;22.40;52.40;;;;;;31234660;28;20074;-42
2021/09/24 20:33:47;;;;;;;5.35;4.45;;;22.40;52.50;;;;;;30845807;28;10000667;-40
2021/09/24 20:48:50;;;;;;;11.65;4.22;;;22.50;52.50;;;;;;31231506;28;20073;-40
2021/09/24 21:03:52;;;;;;;8.02;3.95;;;22.50;52.70;;;;;;31223960;28;20061;-52
2021/09/24 21:18:55;;;;;;;4.70;4.03;;;22.60;52.30;;;;;;31233059;28;20053;-55
2021/09/24 21:33:57;;;;;;;10.27;5.10;;;22.60;52.40;;;;;;31267679;28;20038;-50
2021/09/24 21:48:59;;;;;;;14.52;11.40;;;22.60;52.80;;;;;;31272610;28;20080;-48
2021/09/24 22:04:01;;;;;;;14.18;10.57;;;22.60;52.40;;;;;;31235253;28;20145;-51
2021/09/24 22:19:03;;;;;;;13.27;10.60;;;22.70;52.40;;;;;;31265684;28;20046;-52
2021/09/24 22:34:05;;;;;;;36.90;27.17;;;22.70;52.30;;;;;;31183432;28;20093;-53
2021/09/24 22:49:08;;;;;;;31.05;24.20;;;22.60;52.20;;;;;;31184225;28;20055;-55
2021/09/24 23:04:10;;;;;;;32.00;21.02;;;22.70;52.30;;;;;;31131128;28;20101;-48
2021/09/24 23:19:12;;;;;;;18.10;13.05;;;22.70;52.80;;;;;;31207620;28;20065;-47
2021/09/24 23:34:14;;;;;;;9.45;7.85;;;22.60;53.30;;;;;;31161793;28;20053;-45
2021/09/24 23:49:16;;;;;;;7.35;6.18;;;22.50;53.30;;;;;;31236406;28;20197;-50
